createdAt,value
2022-10-17T00:03:18.305Z,18.52
2022-10-17T00:13:24.420Z,18.17
2022-10-17T00:23:33.466Z,17.95
2022-10-17T00:33:39.087Z,21.08
2022-10-17T00:43:55.756Z,19.65
2022-10-17T00:54:02.481Z,20.80
2022-10-17T01:04:04.782Z,18.38
2022-10-17T01:14:21.776Z,19.95
2022-10-17T01:24:41.916Z,20.02
2022-10-17T01:35:20.833Z,19.60
2022-10-17T01:45:34.551Z,22.00
2022-10-17T01:55:41.728Z,18.90
2022-10-17T02:05:46.146Z,20.83
2022-10-17T02:16:09.291Z,25.00
2022-10-17T02:26:31.777Z,21.40
2022-10-17T02:36:54.506Z,22.30
2022-10-17T02:47:07.809Z,20.98
2022-10-17T02:57:36.938Z,20.88
2022-10-17T03:07:39.521Z,22.02
2022-10-17T03:17:43.035Z,23.88
2022-10-17T03:27:48.425Z,22.83
2022-10-17T03:37:50.600Z,23.85
2022-10-17T03:47:59.036Z,23.23
2022-10-17T03:58:01.514Z,23.75
2022-10-17T04:08:05.585Z,23.48
2022-10-17T04:18:34.264Z,27.38
2022-10-17T04:38:45.373Z,20.83
2022-10-17T04:48:48.419Z,26.35
2022-10-17T04:58:51.419Z,26.88
2022-10-17T05:08:59.233Z,24.50
2022-10-17T05:19:02.140Z,24.55
2022-10-17T05:29:10.742Z,27.30
2022-10-17T05:39:19.973Z,25.23
2022-10-17T05:49:33.851Z,25.38
2022-10-17T05:59:51.665Z,27.98
2022-10-17T06:09:59.588Z,28.17
2022-10-17T06:20:04.204Z,27.92
2022-10-17T06:30:12.271Z,24.90
2022-10-17T06:40:18.820Z,24.63
2022-10-17T06:50:24.177Z,24.42
2022-10-17T07:00:40.204Z,26.05
2022-10-17T07:10:42.438Z,23.15
2022-10-17T07:20:54.778Z,23.30
2022-10-17T07:31:16.505Z,28.38
2022-10-17T07:41:21.731Z,24.85
2022-10-17T07:51:24.974Z,25.02
2022-10-17T08:01:28.387Z,25.80
2022-10-17T08:11:30.469Z,21.38
2022-10-17T08:21:37.822Z,27.20
2022-10-17T08:31:41.102Z,21.90
2022-10-17T08:42:20.300Z,24.33
2022-10-17T08:52:41.578Z,24.48
2022-10-17T09:03:02.083Z,29.92
2022-10-17T09:13:38.211Z,31.25
2022-10-17T09:23:53.210Z,21.13
2022-10-17T09:34:02.850Z,22.90
2022-10-17T09:44:25.401Z,19.52
2022-10-17T09:54:58.971Z,19.90
2022-10-17T10:05:17.849Z,23.15
2022-10-17T10:15:42.685Z,22.40
2022-10-17T10:26:06.134Z,19.33
2022-10-17T10:36:08.312Z,17.52
2022-10-17T10:46:23.300Z,17.83
2022-10-17T10:56:38.597Z,17.13
2022-10-17T11:06:43.963Z,16.73
2022-10-17T11:17:13.836Z,17.38
2022-10-17T11:27:18.241Z,13.93
2022-10-17T11:37:33.845Z,17.35
2022-10-17T11:47:50.027Z,17.40
2022-10-17T11:57:59.948Z,14.70
2022-10-17T12:08:27.983Z,16.85
2022-10-17T12:18:33.952Z,17.15
2022-10-17T12:28:39.442Z,16.83
2022-10-17T12:38:45.746Z,14.48
2022-10-17T12:49:16.921Z,16.42
2022-10-17T12:59:25.128Z,18.35
2022-10-17T13:09:37.616Z,20.08
2022-10-17T13:19:46.019Z,17.38
2022-10-17T13:29:50.313Z,17.65
2022-10-17T13:39:55.964Z,16.67
2022-10-17T13:50:06.856Z,18.63
2022-10-17T14:00:24.951Z,17.10
2022-10-17T14:10:37.163Z,17.33
2022-10-17T14:31:31.890Z,15.93
2022-10-17T14:41:44.117Z,20.20
2022-10-17T14:52:19.695Z,16.38
2022-10-17T15:02:23.141Z,16.70
2022-10-17T15:12:27.860Z,15.63
2022-10-17T15:22:36.761Z,16.33
2022-10-17T15:32:40.900Z,16.90
2022-10-17T15:42:44.584Z,16.08
2022-10-17T15:52:47.372Z,17.52
2022-10-17T16:02:50.118Z,14.45
2022-10-17T16:12:57.365Z,17.75
2022-10-17T16:23:03.918Z,15.93
2022-10-17T16:33:13.289Z,15.68
2022-10-17T16:43:21.645Z,16.52
2022-10-17T16:53:23.675Z,16.48
2022-10-17T17:03:29.367Z,17.92
2022-10-17T17:13:31.424Z,15.57
2022-10-17T17:23:35.182Z,15.98
2022-10-17T17:33:39.346Z,18.17
2022-10-17T17:43:47.215Z,14.38
2022-10-17T17:53:49.625Z,13.85
2022-10-17T18:03:55.999Z,14.73
2022-10-17T18:14:05.407Z,19.23
2022-10-17T18:24:09.803Z,17.98
2022-10-17T18:34:12.065Z,16.85
2022-10-17T18:44:17.061Z,18.63
2022-10-17T18:54:21.727Z,18.33
2022-10-17T19:04:26.915Z,17.60
2022-10-17T19:14:30.672Z,17.15
2022-10-17T19:24:36.190Z,17.17
2022-10-17T19:34:40.777Z,19.92
2022-10-17T19:44:42.818Z,15.13
2022-10-17T19:54:44.850Z,19.48
2022-10-17T20:05:06.356Z,20.92
2022-10-17T20:15:13.857Z,18.98
2022-10-17T20:25:19.116Z,18.27
2022-10-17T20:35:23.571Z,19.35
2022-10-17T20:45:37.610Z,18.98
2022-10-17T20:55:54.530Z,17.45
2022-10-17T21:05:58.766Z,18.05
2022-10-17T21:16:10.118Z,19.50
2022-10-17T21:26:19.368Z,19.30
2022-10-17T21:36:23.667Z,18.10
2022-10-17T21:46:28.144Z,19.60
2022-10-17T21:56:30.926Z,19.45
2022-10-17T22:06:41.592Z,16.95
2022-10-17T22:16:52.722Z,16.92
2022-10-17T22:27:00.303Z,14.88
2022-10-17T22:37:02.240Z,17.90
2022-10-17T22:47:04.307Z,19.48
2022-10-17T22:57:07.507Z,17.27
2022-10-17T23:07:14.170Z,17.58
2022-10-17T23:17:18.322Z,16.92
2022-10-17T23:37:52.393Z,13.43
2022-10-17T23:47:54.367Z,13.32
2022-10-17T23:58:02.392Z,14.75
